Last 30 Days

Scotts Valley-South (Bella Vista)

Daily Data | America/Los_Angeles
as of 8/31/26 10:34 AM PDT
Date Daily Max Temp (°F) Time of Max Temp Daily Min Temp (°F) Time of Min Temp Daily Rain (In) Month Precip (In) Season Precip (In) Daily ETo (in) 7 Day ETo (in) Daily Solar Rad (Cal/cm2) Wind Spd (mph) Daily Max Wind (mph) Time of Max Wind Max Wind Dir (°) Dew Pt (°F) Daily Max RH (%) Daily Min RH (%) Hrs <= 32F (hrs) Hrs <= 28F (hrs) Hrs 70-85F (hrs) Hrs > 95F (hrs) Powdery Mildew Stress (pts) MinBV Day (V)
8/30/26 91.3 1637 46.0 0509 0.00 0.00 0.00 0.177 1.27 514 1.5 13.8 1658 SW | 225 43.0 85 11 0.0 0.0 3.47 0.00 30 12.5
8/29/26 85.8 1421 41.6 0648 0.00 0.00 0.00 0.186 1.28 517 2.5 15.7 1555 NW | 320 40.8 74 22 0.0 0.0 9.83 0.00 40 12.5
8/28/26 84.0 1450 48.8 0051 0.00 0.00 0.00 0.141 1.30 360 2.0 12.1 1813 W | 259 35.9 65 9 0.0 0.0 9.75 0.00 20 12.5
8/27/26 93.6 1447 49.9 0704 0.00 0.00 0.00 0.195 1.34 517 2.1 12.1 1817 NW | 317 44.4 88 10 0.0 0.0 4.69 0.00 0 12.5
8/26/26 93.7 1457 44.2 0610 0.00 0.00 0.00 0.197 1.33 536 2.3 15.0 1842 W | 278 43.1 82 12 0.0 0.0 3.48 0.00 0 12.5
8/25/26 91.2 1641 47.8 0618 0.00 0.00 0.00 0.182 1.34 498 2.0 11.6 1700 SW | 216 41.7 80 8 0.0 0.0 3.36 0.00 0 12.5
8/24/26 92.0 1500 49.7 0701 0.00 0.00 0.00 0.196 1.36 537 1.8 13.3 1524 S | 182 43.9 73 10 0.0 0.0 2.94 0.00 0 12.5
8/23/26 95.3 1658 47.2 0606 0.00 0.00 0.00 0.188 1.35 536 1.4 11.8 1700 SSE | 160 44.4 84 10 0.0 0.0 2.55 0.08 0 12.5
8/22/26 89.6 1337 44.6 0655 0.00 0.00 0.00 0.204 1.36 547 2.3 14.8 1950 NW | 321 42.2 84 11 0.0 0.0 3.56 0.00 0 12.5
8/21/26 89.8 1432 53.3 0049 0.00 0.00 0.00 0.173 1.34 469 2.0 14.9 1656 SW | 217 45.2 73 14 0.0 0.0 3.12 0.00 0 12.6
8/20/26 92.4 1417 52.9 0626 0.00 0.00 0.00 0.194 1.35 509 2.0 17.5 1334 WNW | 283 46.4 75 9 0.0 0.0 2.64 0.00 10 12.5
8/19/26 96.3 1334 54.6 0655 0.00 0.00 0.00 0.208 1.35 542 1.9 14.7 1726 SSW | 207 50.2 79 18 0.0 0.0 1.99 0.83 20 12.6
8/18/26 96.9 1515 54.0 0528 0.00 0.00 0.00 0.196 1.35 535 1.5 13.1 1741 SW | 214 48.5 75 17 0.0 0.0 2.55 1.16 30 12.6
8/17/26 92.1 1632 56.9 0359 0.00 0.00 0.00 0.191 1.36 522 1.8 11.4 1848 SSW | 202 47.5 78 15 0.0 0.0 2.82 0.00 40 12.6
8/16/26 91.5 1510 49.6 0530 0.00 0.00 0.00 0.194 1.39 540 1.8 10.9 1825 SW | 218 49.5 89 18 0.0 0.0 3.66 0.00 50 12.5
8/15/26 86.5 1552 47.9 0603 0.00 0.00 0.00 0.180 1.43 536 1.7 10.3 1957 W | 278 50.1 95 24 0.0 0.0 10.46 0.00 60 12.5
8/14/26 81.8 1538 49.8 0630 0.00 0.00 0.00 0.185 1.48 560 2.2 14.6 1852 SSW | 212 52.2 92 34 0.0 0.0 9.92 0.00 40 12.5
8/13/26 82.7 1229 52.3 0634 0.00 0.00 0.00 0.193 1.52 553 3.0 15.8 1729 SW | 216 52.9 89 34 0.0 0.0 10.47 0.00 20 12.5
8/12/26 92.4 1436 52.1 0634 0.00 0.00 0.00 0.207 1.55 561 2.2 15.9 1701 SSW | 197 51.4 83 14 0.0 0.0 3.94 0.00 0 12.6
8/11/26 93.1 1329 53.5 0638 0.00 0.00 0.00 0.215 1.57 567 2.2 13.5 1812 SSW | 203 51.8 81 21 0.0 0.0 3.09 0.00 0 12.5
8/10/26 96.4 1320 53.5 0617 0.00 0.00 0.00 0.218 1.59 552 2.2 14.1 1456 SW | 228 48.9 70 16 0.0 0.0 2.03 1.47 0 12.5
8/9/26 101.8 1404 53.4 0620 0.00 0.00 0.00 0.235 1.59 582 2.4 14.3 1637 NW | 305 43.2 64 10 0.0 0.0 2.00 5.50 0 12.5
8/8/26 105.8 1432 55.3 0651 0.00 0.00 0.00 0.225 1.58 573 1.8 14.4 1804 WNW | 284 43.2 67 6 0.0 0.0 1.70 7.46 0 12.5
8/7/26 102.9 1444 54.3 0553 0.00 0.00 0.00 0.227 1.59 582 1.8 12.0 1624 SSW | 196 44.6 73 9 0.0 0.0 2.28 6.08 0 12.5
8/6/26 99.2 1434 53.0 0639 0.00 0.00 0.00 0.223 1.59 586 1.7 13.8 1516 SW | 220 48.6 87 6 0.0 0.0 2.35 3.99 0 12.5
8/5/26 99.2 1430 55.8 0622 0.00 0.00 0.00 0.229 1.60 589 2.1 13.8 1619 SW | 217 49.8 75 12 0.0 0.0 3.00 2.67 0 12.6
8/4/26 101.3 1355 54.0 0638 0.00 0.00 0.00 0.232 1.61 586 2.0 14.1 1754 S | 191 50.8 77 8 0.0 0.0 3.95 6.10 0 12.6
8/3/26 104.1 1657 54.6 0639 0.00 0.00 0.00 0.219 1.61 589 1.5 13.2 1706 SW | 225 49.0 75 10 0.0 0.0 2.34 6.30 0 12.5
8/2/26 97.8 1600 54.3 0647 0.00 0.00 0.00 0.228 1.61 593 2.2 13.1 1508 SSW | 198 48.0 74 10 0.0 0.0 2.26 4.42 0 12.5
8/1/26 98.3 1418 51.9 0645 0.00 0.00 0.00 0.235 1.62 602 2.3 15.6 1538 WSW | 249 49.0 84 12 0.0 0.0 2.50 2.26 0 12.5
Max 105.8 - 56.9 - 0.00 0.00 0.00 0.235 1.62 602 3.0 17.5 - - 52.9 95 34 0.0 0.0 10.47 7.46 - 12.6
Avg - - - - - - - - - - 2.0 - - - 46.7 - - 0.0 0.0 4.09 1.61 - -
Min 81.8 - 41.6 - 0.00 0.00 0.00 0.141 1.27 360 1.4 10.3 - - 35.9 64 6 0.0 0.0 1.70 0.00 - 12.5
Total - - - - - - - - - - - - - - - - - 0.0 0.0 122.71 48.33 - -